createdAt,value
2023-03-05T00:01:39.941Z,6.53
2023-03-05T00:04:11.647Z,6.52
2023-03-05T00:06:39.609Z,6.43
2023-03-05T00:09:07.582Z,6.29
2023-03-05T00:11:35.520Z,6.21
2023-03-05T00:14:04.704Z,6.21
2023-03-05T00:16:33.148Z,6.22
2023-03-05T00:19:01.760Z,6.22
2023-03-05T00:21:30.892Z,6.21
2023-03-05T00:24:03.943Z,6.20
2023-03-05T00:26:34.947Z,6.13
2023-03-05T00:29:03.819Z,6.04
2023-03-05T00:31:34.298Z,6.04
2023-03-05T00:34:05.447Z,6.07
2023-03-05T00:36:33.583Z,6.07
2023-03-05T00:39:01.707Z,6.00
2023-03-05T00:41:29.717Z,5.93
2023-03-05T00:43:57.841Z,5.98
2023-03-05T00:46:27.664Z,6.00
2023-03-05T00:48:57.267Z,5.95
2023-03-05T00:51:25.161Z,5.92
2023-03-05T00:53:53.092Z,5.86
2023-03-05T00:56:21.324Z,5.85
2023-03-05T00:58:49.367Z,5.85
2023-03-05T01:01:17.535Z,5.89
2023-03-05T01:03:45.655Z,5.82
2023-03-05T01:06:16.575Z,5.84
2023-03-05T01:08:45.401Z,5.90
2023-03-05T01:11:13.366Z,5.84
2023-03-05T01:13:41.471Z,5.87
2023-03-05T01:16:09.704Z,5.85
2023-03-05T01:18:38.547Z,5.85
2023-03-05T01:21:07.339Z,5.85
2023-03-05T01:23:37.589Z,5.89
2023-03-05T01:26:06.737Z,5.88
2023-03-05T01:28:34.869Z,5.84
2023-03-05T01:31:02.801Z,5.80
2023-03-05T01:33:30.718Z,5.82
2023-03-05T01:35:58.680Z,5.86
2023-03-05T01:38:26.556Z,5.85
2023-03-05T01:40:54.472Z,5.83
2023-03-05T01:43:26.712Z,5.73
2023-03-05T01:46:13.642Z,5.72
2023-03-05T01:48:47.704Z,5.75
2023-03-05T01:51:16.012Z,5.81
2023-03-05T01:53:44.211Z,5.78
2023-03-05T01:56:12.472Z,5.81
2023-03-05T01:58:40.698Z,5.79
2023-03-05T02:01:08.880Z,5.72
2023-03-05T02:03:37.689Z,5.76
2023-03-05T02:06:05.876Z,5.78
2023-03-05T02:08:33.880Z,5.78
2023-03-05T02:11:02.291Z,5.72
2023-03-05T02:13:35.800Z,5.68
2023-03-05T02:16:04.196Z,5.66
2023-03-05T02:18:32.148Z,5.69
2023-03-05T02:21:04.689Z,5.77
2023-03-05T02:23:36.638Z,5.76
2023-03-05T02:26:06.834Z,5.63
2023-03-05T02:28:44.732Z,5.62
2023-03-05T02:31:19.133Z,5.63
2023-03-05T02:33:48.002Z,5.57
2023-03-05T02:36:17.720Z,5.45
2023-03-05T02:38:47.711Z,5.44
2023-03-05T02:41:16.390Z,5.49
2023-03-05T02:43:44.763Z,5.53
2023-03-05T02:46:13.137Z,5.56
2023-03-05T02:48:41.142Z,5.52
2023-03-05T02:51:11.866Z,5.50
2023-03-05T02:53:39.743Z,5.48
2023-03-05T02:56:07.729Z,5.44
2023-03-05T02:58:36.791Z,5.43
2023-03-05T03:01:04.952Z,5.48
2023-03-05T03:03:33.204Z,5.50
2023-03-05T03:06:01.320Z,5.53
2023-03-05T03:08:29.242Z,5.36
2023-03-05T03:10:57.047Z,5.31
2023-03-05T03:13:25.563Z,5.41
2023-03-05T03:16:03.112Z,5.42
2023-03-05T03:18:31.042Z,5.31
2023-03-05T03:20:59.368Z,5.36
2023-03-05T03:23:27.955Z,5.30
2023-03-05T03:25:55.862Z,5.26
2023-03-05T03:28:24.228Z,5.21
2023-03-05T03:30:52.093Z,5.22
2023-03-05T03:33:20.184Z,5.20
2023-03-05T03:35:48.139Z,5.19
2023-03-05T03:38:16.033Z,5.19
2023-03-05T03:40:43.931Z,5.18
2023-03-05T03:43:11.930Z,5.27
2023-03-05T03:45:43.961Z,5.17
2023-03-05T03:48:12.000Z,5.13
2023-03-05T03:50:44.213Z,5.05
2023-03-05T03:53:15.239Z,5.14
2023-03-05T03:55:43.513Z,5.13
2023-03-05T03:58:11.494Z,5.14
2023-03-05T04:00:40.791Z,5.24
2023-03-05T04:03:09.165Z,5.21
2023-03-05T04:05:37.161Z,5.15
2023-03-05T04:08:05.957Z,5.00
2023-03-05T04:10:33.840Z,5.05
2023-03-05T04:13:01.663Z,5.05
2023-03-05T04:15:31.071Z,4.99
2023-03-05T04:17:59.193Z,4.90
2023-03-05T04:20:27.327Z,4.84
2023-03-05T04:22:55.161Z,4.76
2023-03-05T04:25:23.215Z,4.78
2023-03-05T04:27:52.224Z,4.68
2023-03-05T04:30:20.168Z,4.66
2023-03-05T04:32:48.036Z,4.61
2023-03-05T04:35:15.956Z,4.64
2023-03-05T04:37:43.867Z,4.66
2023-03-05T04:40:12.281Z,4.66
2023-03-05T04:42:40.157Z,4.59
2023-03-05T04:45:08.881Z,4.55
2023-03-05T04:47:36.883Z,4.51
2023-03-05T04:50:06.372Z,4.43
2023-03-05T04:52:34.462Z,4.43
2023-03-05T04:55:02.450Z,4.42
2023-03-05T04:57:30.424Z,4.31
2023-03-05T04:59:58.617Z,4.36
2023-03-05T05:02:26.634Z,4.28
2023-03-05T05:04:54.613Z,4.24
2023-03-05T05:07:22.518Z,4.36
2023-03-05T05:09:50.360Z,4.33
2023-03-05T05:12:18.354Z,4.19
2023-03-05T05:14:46.311Z,4.25
2023-03-05T05:17:14.294Z,4.25
2023-03-05T05:19:42.248Z,4.21
2023-03-05T05:22:10.160Z,4.14
2023-03-05T05:24:37.980Z,4.11
2023-03-05T05:27:05.981Z,4.15
2023-03-05T05:29:33.901Z,4.18
2023-03-05T05:32:01.856Z,4.20
2023-03-05T05:34:29.839Z,4.21
2023-03-05T05:36:57.800Z,4.26
2023-03-05T05:39:25.635Z,4.36
2023-03-05T05:41:54.008Z,4.50
2023-03-05T05:44:21.850Z,4.49
2023-03-05T05:46:49.892Z,4.43
2023-03-05T05:49:17.927Z,4.42
2023-03-05T05:51:46.132Z,4.34
2023-03-05T05:54:15.259Z,4.27
2023-03-05T05:56:43.251Z,4.26
2023-03-05T05:59:11.291Z,4.24
2023-03-05T06:01:39.529Z,4.38
2023-03-05T06:04:07.491Z,4.55
2023-03-05T06:06:35.536Z,4.62
2023-03-05T06:09:04.360Z,4.63
2023-03-05T06:11:32.450Z,4.55
2023-03-05T06:14:02.739Z,4.74
2023-03-05T06:16:31.318Z,4.82
2023-03-05T06:19:00.371Z,4.91
2023-03-05T06:21:28.239Z,5.08
2023-03-05T06:23:58.855Z,5.24
2023-03-05T06:26:27.010Z,5.31
2023-03-05T06:28:55.107Z,5.06
2023-03-05T06:31:28.130Z,4.97
2023-03-05T06:34:03.054Z,4.77
2023-03-05T06:36:31.643Z,5.03
2023-03-05T06:39:00.504Z,5.30
2023-03-05T06:41:31.000Z,5.19
2023-03-05T06:44:03.493Z,5.34
2023-03-05T06:46:40.635Z,5.41
2023-03-05T06:49:09.758Z,5.42
2023-03-05T06:51:40.393Z,5.57
2023-03-05T06:54:11.788Z,5.77
2023-03-05T06:56:42.050Z,5.78
2023-03-05T06:59:12.175Z,6.03
2023-03-05T07:01:40.332Z,6.11
2023-03-05T07:04:08.529Z,6.36
2023-03-05T07:06:38.735Z,6.55
2023-03-05T07:09:08.128Z,6.71
2023-03-05T07:11:36.413Z,7.08
2023-03-05T07:14:04.669Z,6.92
2023-03-05T07:16:34.946Z,7.10
2023-03-05T07:19:05.694Z,7.40
2023-03-05T07:21:36.903Z,7.30
2023-03-05T07:24:06.758Z,7.19
2023-03-05T07:26:35.088Z,7.55
2023-03-05T07:29:03.655Z,7.62
2023-03-05T07:31:32.350Z,7.65
2023-03-05T07:34:02.654Z,7.99
2023-03-05T07:36:31.249Z,8.32
2023-03-05T07:38:59.107Z,8.73
2023-03-05T07:41:27.080Z,8.91
2023-03-05T07:43:55.440Z,9.00
2023-03-05T07:46:29.533Z,8.97
2023-03-05T07:48:57.568Z,9.20
2023-03-05T07:51:26.805Z,9.67
2023-03-05T07:53:57.605Z,9.57
2023-03-05T07:56:31.928Z,9.73
2023-03-05T07:59:00.368Z,9.77
2023-03-05T08:01:29.974Z,9.95
2023-03-05T08:03:57.986Z,10.09
2023-03-05T08:06:25.980Z,9.91
2023-03-05T08:08:53.813Z,10.40
2023-03-05T08:11:21.796Z,10.59
2023-03-05T08:13:51.322Z,11.09
2023-03-05T08:16:21.580Z,11.18
2023-03-05T08:18:49.508Z,11.58
2023-03-05T08:21:23.405Z,11.56
2023-03-05T08:23:51.321Z,11.99
2023-03-05T08:26:22.115Z,11.56
2023-03-05T08:28:50.936Z,11.51
2023-03-05T08:31:21.833Z,11.82
2023-03-05T08:33:52.156Z,12.00
2023-03-05T08:36:20.559Z,12.08
2023-03-05T08:38:48.819Z,12.42
2023-03-05T08:41:18.818Z,12.10
2023-03-05T08:43:47.069Z,12.11
2023-03-05T08:46:16.222Z,12.26
2023-03-05T08:48:44.763Z,12.25
2023-03-05T08:51:19.007Z,12.13
2023-03-05T08:53:48.222Z,12.20
2023-03-05T08:56:16.134Z,12.09
2023-03-05T08:58:44.869Z,12.36
2023-03-05T09:01:13.695Z,12.22
2023-03-05T09:03:42.180Z,12.16
2023-03-05T09:06:12.640Z,12.35
2023-03-05T09:08:40.717Z,12.50
2023-03-05T09:11:11.820Z,12.48
2023-03-05T09:13:39.965Z,12.77
2023-03-05T09:16:11.241Z,12.81
2023-03-05T09:18:40.758Z,12.09
2023-03-05T09:21:14.093Z,12.66
2023-03-05T09:23:42.732Z,12.74
2023-03-05T09:26:12.550Z,12.77
2023-03-05T09:28:41.020Z,12.73
2023-03-05T09:31:10.531Z,13.14
2023-03-05T09:33:39.360Z,13.31
2023-03-05T09:36:27.519Z,13.44
2023-03-05T09:38:55.892Z,13.39
2023-03-05T09:42:04.184Z,13.51
2023-03-05T09:44:59.325Z,13.20
2023-03-05T09:47:32.865Z,13.62
2023-03-05T09:50:18.969Z,13.59
2023-03-05T09:52:59.767Z,13.68
2023-03-05T09:55:44.831Z,13.74
2023-03-05T09:58:30.550Z,13.82
2023-03-05T10:01:02.770Z,13.95
2023-03-05T10:03:42.609Z,13.60
2023-03-05T10:06:23.752Z,13.74
2023-03-05T10:09:09.945Z,14.01
2023-03-05T10:11:59.262Z,13.72
2023-03-05T10:14:31.160Z,13.76
2023-03-05T10:17:20.897Z,14.11
2023-03-05T10:20:13.203Z,14.51
2023-03-05T10:23:39.453Z,14.23
2023-03-05T10:26:36.756Z,14.37
2023-03-05T10:29:13.543Z,14.64
2023-03-05T10:32:04.588Z,14.69
2023-03-05T10:35:01.838Z,14.81
2023-03-05T10:37:48.892Z,15.19
2023-03-05T10:40:30.014Z,15.39
2023-03-05T10:43:15.683Z,14.96
2023-03-05T10:45:46.700Z,14.76
2023-03-05T10:48:43.506Z,15.10
2023-03-05T10:51:23.325Z,15.09
2023-03-05T10:53:56.599Z,15.27
2023-03-05T10:56:27.768Z,15.45
2023-03-05T10:58:55.854Z,15.87
2023-03-05T11:01:28.272Z,15.97
2023-03-05T11:04:01.616Z,15.83
2023-03-05T11:06:46.537Z,16.01
2023-03-05T11:09:29.456Z,15.48
2023-03-05T11:12:19.600Z,15.57
2023-03-05T11:15:05.121Z,15.52
2023-03-05T11:17:38.326Z,15.95
2023-03-05T11:20:27.765Z,15.91
2023-03-05T11:23:05.882Z,15.53
2023-03-05T11:25:35.441Z,15.79
2023-03-05T11:28:04.290Z,16.20
2023-03-05T11:30:35.222Z,15.95
2023-03-05T11:33:22.689Z,15.89
2023-03-05T11:35:52.680Z,15.99
2023-03-05T11:38:24.678Z,16.08
2023-03-05T11:40:55.671Z,16.12
2023-03-05T11:43:25.886Z,15.42
2023-03-05T11:46:01.713Z,15.99
2023-03-05T11:48:36.147Z,16.22
2023-03-05T11:51:13.899Z,15.96
2023-03-05T11:53:44.755Z,16.07
2023-03-05T11:56:21.079Z,16.49
2023-03-05T11:59:03.108Z,17.33
2023-03-05T12:01:40.683Z,17.09
2023-03-05T12:04:08.923Z,16.05
2023-03-05T12:06:49.255Z,16.36
2023-03-05T12:09:23.178Z,16.60
2023-03-05T12:11:56.709Z,16.18
2023-03-05T12:14:28.112Z,16.37
2023-03-05T12:17:04.543Z,16.48
2023-03-05T12:19:41.424Z,16.53
2023-03-05T12:22:27.423Z,16.53
2023-03-05T12:25:34.884Z,16.77
2023-03-05T12:28:03.326Z,16.27
2023-03-05T12:30:37.189Z,17.05
2023-03-05T12:33:26.765Z,17.28
2023-03-05T12:35:55.037Z,17.59
2023-03-05T12:38:31.885Z,17.67
2023-03-05T12:41:25.861Z,17.70
2023-03-05T12:44:07.056Z,16.93
2023-03-05T12:46:54.822Z,16.73
2023-03-05T12:49:27.196Z,17.04
2023-03-05T12:52:01.351Z,17.72
2023-03-05T12:54:31.959Z,17.27
2023-03-05T12:57:06.845Z,17.73
2023-03-05T12:59:45.790Z,17.82
2023-03-05T13:02:32.542Z,17.80
2023-03-05T13:05:14.860Z,17.15
2023-03-05T13:07:42.884Z,17.60
2023-03-05T13:10:29.297Z,17.49
2023-03-05T13:12:58.757Z,17.67
2023-03-05T13:15:27.258Z,18.13
2023-03-05T13:17:58.144Z,18.05
2023-03-05T13:20:28.894Z,18.15
2023-03-05T13:23:20.799Z,18.28
2023-03-05T13:26:01.440Z,18.39
2023-03-05T13:28:32.553Z,18.08
2023-03-05T13:31:05.114Z,17.94
2023-03-05T13:33:37.846Z,17.65
2023-03-05T13:36:06.851Z,17.48
2023-03-05T13:38:39.255Z,17.78
2023-03-05T13:41:16.227Z,18.26
2023-03-05T13:43:49.635Z,18.24
2023-03-05T13:46:47.889Z,18.17
2023-03-05T13:49:23.156Z,18.22
2023-03-05T13:51:56.645Z,17.84
2023-03-05T13:54:27.198Z,18.05
2023-03-05T13:57:00.777Z,17.93
2023-03-05T13:59:31.415Z,17.49
2023-03-05T14:02:01.632Z,17.09
2023-03-05T14:04:42.837Z,16.61
2023-03-05T14:07:39.971Z,16.84
2023-03-05T14:10:40.470Z,16.75
2023-03-05T14:13:19.362Z,16.73
2023-03-05T14:16:07.053Z,16.83
2023-03-05T14:18:36.129Z,16.63
2023-03-05T14:21:10.158Z,16.37
2023-03-05T14:23:39.741Z,16.25
2023-03-05T14:26:39.758Z,16.38
2023-03-05T14:29:07.634Z,16.20
2023-03-05T14:31:56.296Z,16.23
2023-03-05T14:34:35.366Z,16.28
2023-03-05T14:37:07.333Z,16.34
2023-03-05T14:39:53.221Z,16.20
2023-03-05T14:42:38.434Z,16.24
2023-03-05T14:45:24.637Z,16.14
2023-03-05T14:47:54.512Z,16.20
2023-03-05T14:50:32.764Z,16.24
2023-03-05T14:53:17.515Z,16.15
2023-03-05T14:55:49.446Z,16.15
2023-03-05T14:58:22.008Z,16.24
2023-03-05T15:00:51.343Z,16.25
2023-03-05T15:03:22.049Z,16.34
2023-03-05T15:05:56.505Z,16.04
2023-03-05T15:08:27.747Z,16.03
2023-03-05T15:10:56.063Z,16.04
2023-03-05T15:13:24.546Z,15.76
2023-03-05T15:15:53.765Z,15.71
2023-03-05T15:18:23.930Z,15.73
2023-03-05T15:20:57.128Z,15.71
2023-03-05T15:23:25.284Z,15.58
2023-03-05T15:25:53.111Z,15.42
2023-03-05T15:28:21.171Z,15.45
2023-03-05T15:30:49.082Z,15.40
2023-03-05T15:33:18.296Z,15.33
2023-03-05T15:35:46.552Z,15.29
2023-03-05T15:38:16.374Z,15.18
2023-03-05T15:40:45.102Z,15.24
2023-03-05T15:43:13.528Z,15.07
2023-03-05T15:45:41.557Z,15.04
2023-03-05T15:48:09.688Z,14.99
2023-03-05T15:50:42.210Z,15.00
2023-03-05T15:53:13.612Z,14.93
2023-03-05T15:55:45.125Z,15.00
2023-03-05T15:58:17.529Z,14.95
2023-03-05T16:00:47.696Z,14.95
2023-03-05T16:03:16.348Z,14.85
2023-03-05T16:05:44.435Z,14.84
2023-03-05T16:08:12.718Z,14.82
2023-03-05T16:10:41.186Z,14.88
2023-03-05T16:13:13.647Z,14.81
2023-03-05T16:15:43.140Z,14.75
2023-03-05T16:18:15.541Z,14.78
2023-03-05T16:20:43.757Z,14.55
2023-03-05T16:23:11.730Z,14.55
2023-03-05T16:25:39.799Z,14.63
2023-03-05T16:28:07.874Z,14.67
2023-03-05T16:30:35.829Z,14.56
2023-03-05T16:33:03.942Z,14.51
2023-03-05T16:35:31.941Z,14.60
2023-03-05T16:37:59.863Z,14.60
2023-03-05T16:40:44.137Z,14.47
2023-03-05T16:43:15.573Z,14.41
2023-03-05T16:45:43.404Z,14.40
2023-03-05T16:48:11.181Z,14.33
2023-03-05T16:50:39.077Z,14.33
2023-03-05T16:53:07.685Z,14.26
2023-03-05T16:55:37.020Z,14.16
2023-03-05T16:58:05.354Z,14.12
2023-03-05T17:00:33.382Z,14.08
2023-03-05T17:03:01.453Z,14.13
2023-03-05T17:05:30.017Z,14.02
2023-03-05T17:07:57.983Z,14.01
2023-03-05T17:10:26.013Z,13.95
2023-03-05T17:12:54.676Z,13.91
2023-03-05T17:15:23.659Z,13.91
2023-03-05T17:17:51.822Z,13.80
2023-03-05T17:20:20.304Z,13.87
2023-03-05T17:22:48.204Z,13.80
2023-03-05T17:25:16.162Z,13.82
2023-03-05T17:27:44.091Z,13.62
2023-03-05T17:30:13.134Z,13.48
2023-03-05T17:32:44.139Z,13.30
2023-03-05T17:35:19.390Z,13.24
2023-03-05T17:37:47.434Z,13.21
2023-03-05T17:40:16.434Z,13.08
2023-03-05T17:42:44.349Z,12.98
2023-03-05T17:45:12.696Z,12.93
2023-03-05T17:47:40.836Z,12.91
2023-03-05T17:50:10.806Z,12.80
2023-03-05T17:52:40.634Z,12.70
2023-03-05T17:55:11.100Z,12.66
2023-03-05T17:57:44.178Z,12.60
2023-03-05T18:00:24.783Z,12.58
2023-03-05T18:02:53.920Z,12.55
2023-03-05T18:05:23.684Z,12.51
2023-03-05T18:07:52.309Z,12.54
2023-03-05T18:10:21.185Z,12.44
2023-03-05T18:12:49.648Z,12.39
2023-03-05T18:15:20.105Z,12.36
2023-03-05T18:17:48.097Z,12.32
2023-03-05T18:20:32.812Z,12.20
2023-03-05T18:23:02.095Z,12.11
2023-03-05T18:25:33.759Z,11.89
2023-03-05T18:28:04.251Z,11.68
2023-03-05T18:30:32.788Z,11.60
2023-03-05T18:33:01.109Z,11.49
2023-03-05T18:35:29.791Z,11.32
2023-03-05T18:37:57.881Z,11.27
2023-03-05T18:40:29.286Z,11.17
2023-03-05T18:43:00.207Z,11.13
2023-03-05T18:45:29.869Z,11.08
2023-03-05T18:47:57.985Z,11.05
2023-03-05T18:50:28.482Z,11.01
2023-03-05T18:52:56.765Z,11.05
2023-03-05T18:55:27.600Z,11.03
2023-03-05T18:57:56.361Z,11.07
2023-03-05T19:00:27.738Z,11.03
2023-03-05T19:02:57.133Z,11.08
2023-03-05T19:05:26.830Z,11.15
2023-03-05T19:07:55.627Z,11.34
2023-03-05T19:10:27.264Z,11.28
2023-03-05T19:13:39.877Z,11.28
2023-03-05T19:16:08.938Z,11.42
2023-03-05T19:19:26.065Z,11.35
2023-03-05T19:21:59.721Z,11.29
2023-03-05T19:24:30.183Z,11.27
2023-03-05T19:27:01.247Z,11.28
2023-03-05T19:29:33.135Z,11.26
2023-03-05T19:32:01.292Z,11.17
2023-03-05T19:34:29.156Z,11.18
2023-03-05T19:36:57.357Z,11.23
2023-03-05T19:39:25.316Z,11.28
2023-03-05T19:41:53.785Z,11.26
2023-03-05T19:44:23.543Z,11.29
2023-03-05T19:46:52.276Z,11.19
2023-03-05T19:49:20.526Z,11.15
2023-03-05T19:51:49.719Z,11.24
2023-03-05T19:54:19.858Z,11.25
2023-03-05T19:56:49.161Z,11.24
2023-03-05T19:59:21.283Z,11.21
2023-03-05T20:01:50.167Z,10.95
2023-03-05T20:04:24.452Z,11.03
2023-03-05T20:06:52.768Z,10.75
2023-03-05T20:09:20.737Z,10.73
2023-03-05T20:11:50.074Z,10.44
2023-03-05T20:14:18.546Z,10.45
2023-03-05T20:16:46.494Z,10.33
2023-03-05T20:19:17.781Z,10.39
2023-03-05T20:21:45.738Z,10.40
2023-03-05T20:24:20.110Z,10.29
2023-03-05T20:26:48.337Z,10.46
2023-03-05T20:29:18.169Z,10.20
2023-03-05T20:31:47.786Z,10.30
2023-03-05T20:34:21.133Z,10.30
2023-03-05T20:36:52.261Z,10.14
2023-03-05T20:39:20.190Z,10.13
2023-03-05T20:41:48.685Z,10.05
2023-03-05T20:44:17.480Z,10.05
2023-03-05T20:47:39.673Z,10.17
2023-03-05T20:50:11.129Z,10.04
2023-03-05T20:52:39.513Z,10.26
2023-03-05T20:55:08.956Z,10.14
2023-03-05T20:57:36.904Z,10.18
2023-03-05T21:00:05.915Z,10.02
2023-03-05T21:02:33.842Z,9.92
2023-03-05T21:05:01.643Z,9.94
2023-03-05T21:07:29.830Z,9.86
2023-03-05T21:09:57.589Z,9.86
2023-03-05T21:12:25.435Z,9.98
2023-03-05T21:14:53.363Z,9.99
2023-03-05T21:17:21.370Z,10.01
2023-03-05T21:19:49.444Z,9.88
2023-03-05T21:22:17.333Z,9.90
2023-03-05T21:25:24.936Z,10.01
2023-03-05T21:28:16.639Z,10.03
2023-03-05T21:30:51.913Z,9.99
2023-03-05T21:33:23.545Z,9.97
2023-03-05T21:35:52.902Z,9.85
2023-03-05T21:38:27.062Z,9.83
2023-03-05T21:40:54.939Z,9.71
2023-03-05T21:43:24.248Z,9.64
2023-03-05T21:45:54.349Z,9.63
2023-03-05T21:48:23.480Z,9.71
2023-03-05T21:50:52.557Z,9.54
2023-03-05T21:53:21.069Z,9.73
2023-03-05T21:56:25.469Z,9.55
2023-03-05T21:58:54.205Z,9.58
2023-03-05T22:01:22.408Z,9.55
2023-03-05T22:03:50.809Z,9.72
2023-03-05T22:06:19.862Z,9.72
2023-03-05T22:08:48.600Z,9.83
2023-03-05T22:11:18.058Z,9.76
2023-03-05T22:13:45.912Z,9.74
2023-03-05T22:16:24.526Z,10.05
2023-03-05T22:18:52.957Z,10.18
2023-03-05T22:21:23.481Z,10.10
2023-03-05T22:23:51.367Z,10.01
2023-03-05T22:26:19.235Z,10.01
2023-03-05T22:28:47.110Z,9.93
2023-03-05T22:31:27.525Z,9.75
2023-03-05T22:33:55.364Z,9.71
2023-03-05T22:36:24.550Z,9.73
2023-03-05T22:38:52.813Z,9.75
2023-03-05T22:41:21.847Z,9.63
2023-03-05T22:43:50.653Z,9.51
2023-03-05T22:46:24.524Z,9.59
2023-03-05T22:48:52.709Z,9.57
2023-03-05T22:51:20.801Z,9.43
2023-03-05T22:53:48.794Z,9.61
2023-03-05T22:56:19.039Z,9.47
2023-03-05T22:58:47.260Z,9.37
2023-03-05T23:01:18.692Z,9.37
2023-03-05T23:04:44.801Z,9.36
2023-03-05T23:07:34.784Z,9.26
2023-03-05T23:10:07.265Z,9.19
2023-03-05T23:12:37.801Z,9.16
2023-03-05T23:15:09.036Z,9.13
2023-03-05T23:17:36.995Z,9.03
2023-03-05T23:20:08.020Z,8.99
2023-03-05T23:22:40.388Z,8.95
2023-03-05T23:25:08.687Z,8.91
2023-03-05T23:27:36.678Z,8.84
2023-03-05T23:30:24.461Z,8.89
2023-03-05T23:32:58.832Z,8.85
2023-03-05T23:35:51.412Z,8.75
2023-03-05T23:38:19.352Z,8.69
2023-03-05T23:40:50.026Z,8.56
2023-03-05T23:43:18.953Z,8.56
2023-03-05T23:45:49.447Z,8.50
2023-03-05T23:48:18.109Z,8.49
2023-03-05T23:50:48.680Z,8.48
2023-03-05T23:53:22.269Z,8.51
2023-03-05T23:55:50.580Z,8.46
2023-03-05T23:58:20.726Z,8.47
